Time;durP1;ratioP1;P1;durP2;ratioP2;P2;SDS_P1;SDS_P2;PMS_P1;PMS_P2;Temp;Humidity;BMP_temperature;BMP_pressure;BME280_temperature;BME280_humidity;BME280_pressure;Samples;Min_cycle;Max_cycle;Signal;HPM_P1;HPM_P2
2021/10/31 00:00:12;;;;;;;4.35;1.65;;;20.80;66.00;;;;;;4949038;28;87400;-65
2021/10/31 00:02:39;;;;;;;5.53;1.50;;;20.80;66.10;;;;;;4947386;28;89934;-65
2021/10/31 00:05:05;;;;;;;4.78;1.50;;;20.80;66.10;;;;;;4931381;28;91203;-64
2021/10/31 00:07:31;;;;;;;2.83;1.50;;;20.80;66.10;;;;;;4948618;28;91571;-64
2021/10/31 00:09:56;;;;;;;3.70;1.30;;;20.80;66.10;;;;;;4948856;28;86574;-64
2021/10/31 00:12:22;;;;;;;5.43;1.40;;;20.80;66.10;;;;;;4948044;28;87922;-66
2021/10/31 00:14:48;;;;;;;6.57;1.45;;;20.80;66.10;;;;;;4946327;28;91112;-66
2021/10/31 00:17:14;;;;;;;3.47;1.52;;;20.80;66.10;;;;;;4947644;28;88458;-65
2021/10/31 00:19:39;;;;;;;5.40;1.58;;;20.80;66.20;;;;;;4948856;28;88105;-64
2021/10/31 00:22:05;;;;;;;4.57;1.15;;;20.80;66.20;;;;;;4948468;28;87750;-64
2021/10/31 00:24:31;;;;;;;5.28;1.45;;;20.80;66.20;;;;;;4949380;28;88632;-64
2021/10/31 00:26:56;;;;;;;3.90;1.38;;;20.80;66.20;;;;;;4952385;28;88203;-65
2021/10/31 00:29:22;;;;;;;3.92;1.50;;;20.70;66.20;;;;;;4952463;28;87663;-65
2021/10/31 00:31:48;;;;;;;6.90;1.83;;;20.70;66.20;;;;;;4953132;28;87339;-64
2021/10/31 00:34:14;;;;;;;6.10;1.60;;;20.70;66.20;;;;;;4952369;28;87249;-65
2021/10/31 00:36:39;;;;;;;5.03;1.50;;;20.80;66.20;;;;;;4950534;28;90029;-65
2021/10/31 00:39:05;;;;;;;3.28;1.17;;;20.70;66.30;;;;;;4952120;28;87588;-64
2021/10/31 00:41:32;;;;;;;5.90;1.25;;;20.70;66.30;;;;;;4949958;28;89749;-67
2021/10/31 00:43:57;;;;;;;4.95;1.48;;;20.70;66.30;;;;;;4934089;28;89775;-65
2021/10/31 00:46:25;;;;;;;4.78;1.42;;;20.70;66.30;;;;;;4950362;28;90876;-65
2021/10/31 00:48:51;;;;;;;6.00;1.70;;;20.70;66.30;;;;;;4951702;28;88565;-65
2021/10/31 00:51:17;;;;;;;4.18;1.35;;;20.70;66.30;;;;;;4952655;28;87110;-64
2021/10/31 00:53:43;;;;;;;3.63;1.13;;;20.70;66.30;;;;;;4952321;28;89278;-65
2021/10/31 00:56:10;;;;;;;3.95;1.52;;;20.70;66.30;;;;;;4934551;28;91079;-65
2021/10/31 00:58:36;;;;;;;3.10;0.90;;;20.70;66.30;;;;;;4951292;28;87550;-64
2021/10/31 01:01:02;;;;;;;4.85;1.63;;;20.70;66.30;;;;;;4949564;28;88958;-66
2021/10/31 01:03:27;;;;;;;5.28;1.45;;;20.70;66.30;;;;;;4949918;28;91158;-65
2021/10/31 01:06:03;;;;;;;5.50;1.33;;;20.70;66.40;;;;;;4951595;28;89024;-65
2021/10/31 01:08:57;;;;;;;4.55;1.42;;;20.60;66.30;;;;;;4950455;28;88196;-65
2021/10/31 01:11:43;;;;;;;3.53;1.40;;;20.70;66.40;;;;;;4933490;28;88668;-65
2021/10/31 01:14:36;;;;;;;3.47;1.30;;;20.70;66.40;;;;;;4949623;28;90142;-66
2021/10/31 01:17:21;;;;;;;2.97;1.27;;;20.60;66.40;;;;;;4951833;28;87514;-65
2021/10/31 01:19:58;;;;;;;3.72;1.00;;;20.60;66.40;;;;;;4951306;28;88161;-66
2021/10/31 01:22:32;;;;;;;2.88;1.40;;;20.70;66.50;;;;;;4951246;28;87329;-64
2021/10/31 01:25:23;;;;;;;2.72;1.13;;;20.70;66.60;;;;;;4927127;28;89377;-64
2021/10/31 01:28:15;;;;;;;3.53;1.33;;;20.60;66.50;;;;;;4933846;28;90007;-65
2021/10/31 01:30:47;;;;;;;3.13;1.20;;;20.60;66.50;;;;;;4950244;28;87345;-64
2021/10/31 01:33:35;;;;;;;4.50;1.55;;;20.60;66.60;;;;;;4951071;28;88622;-64
2021/10/31 01:36:05;;;;;;;7.85;1.27;;;20.70;66.60;;;;;;4950685;28;87964;-66
2021/10/31 01:38:40;;;;;;;3.42;1.13;;;20.60;66.60;;;;;;4949557;28;91140;-64
2021/10/31 01:41:11;;;;;;;5.57;1.63;;;20.60;66.60;;;;;;4951925;28;87998;-64
2021/10/31 01:44:02;;;;;;;3.35;1.15;;;20.60;66.60;;;;;;4933222;28;88615;-66
2021/10/31 01:46:58;;;;;;;3.47;1.20;;;20.60;67.10;;;;;;4932099;28;89482;-64
2021/10/31 01:49:43;;;;;;;6.40;1.10;;;20.60;66.60;;;;;;4949426;28;91209;-65
2021/10/31 01:52:35;;;;;;;2.65;1.15;;;20.60;66.60;;;;;;4950133;28;87565;-65
2021/10/31 01:55:21;;;;;;;13.40;1.85;;;20.60;66.60;;;;;;4943451;28;90954;-65
2021/10/31 01:57:51;;;;;;;3.13;1.23;;;20.60;66.70;;;;;;4949989;28;87134;-67
2021/10/31 02:00:17;;;;;;;4.35;1.40;;;20.60;66.70;;;;;;4931870;28;91127;-65
2021/10/31 02:02:45;;;;;;;4.25;1.38;;;20.60;66.70;;;;;;4949449;28;88419;-65
2021/10/31 02:05:15;;;;;;;6.55;1.48;;;20.60;66.70;;;;;;4951630;28;87935;-66
2021/10/31 02:07:47;;;;;;;2.63;1.40;;;20.60;66.70;;;;;;4951551;28;87924;-66
2021/10/31 02:10:13;;;;;;;3.05;1.27;;;20.60;66.70;;;;;;4950275;28;87651;-65
2021/10/31 02:12:41;;;;;;;0.80;0.63;;;20.50;66.70;;;;;;4949833;28;87107;-66
2021/10/31 02:15:12;;;;;;;3.53;1.45;;;20.60;66.70;;;;;;4951300;28;88234;-65
2021/10/31 02:17:39;;;;;;;4.63;1.13;;;20.60;66.70;;;;;;4951510;28;87611;-65
2021/10/31 02:20:05;;;;;;;4.00;1.23;;;20.60;66.70;;;;;;4933029;28;90390;-66
2021/10/31 02:22:33;;;;;;;3.83;1.63;;;20.60;66.70;;;;;;4932811;28;87185;-66
2021/10/31 02:25:03;;;;;;;4.65;1.25;;;20.60;66.70;;;;;;4932772;28;89997;-65
2021/10/31 02:27:33;;;;;;;2.28;0.75;;;20.60;66.70;;;;;;4949782;28;91810;-65
2021/10/31 02:30:01;;;;;;;4.72;1.45;;;20.50;66.70;;;;;;4949194;28;90665;-65
2021/10/31 02:32:29;;;;;;;3.38;0.90;;;20.50;66.70;;;;;;4933095;28;87296;-65
2021/10/31 02:34:56;;;;;;;3.42;1.05;;;20.50;66.70;;;;;;4950221;28;87564;-64
2021/10/31 02:37:22;;;;;;;2.95;1.17;;;20.50;66.80;;;;;;4949965;28;88559;-66
2021/10/31 02:39:48;;;;;;;4.95;1.35;;;20.50;66.80;;;;;;4949421;28;87914;-65
2021/10/31 02:42:14;;;;;;;4.63;1.02;;;20.50;66.80;;;;;;4950484;28;87616;-65
2021/10/31 02:44:41;;;;;;;7.07;2.08;;;20.50;66.70;;;;;;4949707;28;87695;-65
2021/10/31 02:47:12;;;;;;;4.57;1.25;;;20.50;66.80;;;;;;4932698;28;90289;-65
2021/10/31 02:49:38;;;;;;;2.15;1.13;;;20.50;66.80;;;;;;4948549;28;89314;-65
2021/10/31 02:52:28;;;;;;;2.88;1.00;;;20.50;66.80;;;;;;4951381;28;87646;-64
2021/10/31 02:55:09;;;;;;;1.98;0.98;;;20.40;66.70;;;;;;4950476;28;87966;-66
2021/10/31 02:58:12;;;;;;;4.63;1.00;;;20.50;66.80;;;;;;4950257;28;88167;-65
2021/10/31 03:00:39;;;;;;;2.15;0.68;;;20.50;66.80;;;;;;4915227;28;89285;-65
2021/10/31 03:03:07;;;;;;;2.28;1.00;;;20.50;66.80;;;;;;4935943;28;88616;-65
2021/10/31 03:05:34;;;;;;;2.47;0.93;;;20.50;66.80;;;;;;4950514;28;87693;-65
2021/10/31 03:08:00;;;;;;;1.58;0.80;;;20.50;66.80;;;;;;4932886;28;90311;-64
2021/10/31 03:10:26;;;;;;;3.28;0.98;;;20.50;66.80;;;;;;4947993;28;89987;-65
2021/10/31 03:12:52;;;;;;;3.42;1.20;;;20.50;66.80;;;;;;4931440;28;87899;-65
2021/10/31 03:15:19;;;;;;;3.45;0.88;;;20.50;66.90;;;;;;4931526;28;89523;-64
2021/10/31 03:17:45;;;;;;;1.75;0.70;;;20.40;66.80;;;;;;4950807;28;88109;-64
2021/10/31 03:20:11;;;;;;;3.15;0.90;;;20.40;66.80;;;;;;4930170;28;91215;-67
2021/10/31 03:22:37;;;;;;;4.07;1.23;;;20.40;66.80;;;;;;4950119;28;87877;-64
2021/10/31 03:25:03;;;;;;;2.45;0.80;;;20.40;66.80;;;;;;4931760;28;90017;-65
2021/10/31 03:27:29;;;;;;;1.95;0.90;;;20.40;66.80;;;;;;4931771;28;91802;-64
2021/10/31 03:29:55;;;;;;;2.38;0.95;;;20.50;66.90;;;;;;4931518;28;90708;-66
2021/10/31 03:32:21;;;;;;;2.63;0.98;;;20.40;66.90;;;;;;4949230;28;87220;-65
2021/10/31 03:34:46;;;;;;;2.90;0.82;;;20.40;66.90;;;;;;4948757;28;87180;-66
2021/10/31 03:37:12;;;;;;;3.47;1.23;;;20.40;66.90;;;;;;4950351;28;88293;-67
2021/10/31 03:39:38;;;;;;;4.07;1.40;;;20.40;66.90;;;;;;4931680;28;90998;-65
2021/10/31 03:42:05;;;;;;;2.83;1.10;;;20.40;66.90;;;;;;4949544;28;87740;-65
2021/10/31 03:44:35;;;;;;;3.90;1.15;;;20.40;66.90;;;;;;4947382;28;90102;-65
2021/10/31 03:47:01;;;;;;;1.83;0.70;;;20.40;66.90;;;;;;4949550;28;88077;-65
2021/10/31 03:49:27;;;;;;;2.25;0.82;;;20.40;66.90;;;;;;4931882;28;91039;-65
2021/10/31 03:51:53;;;;;;;0.85;0.68;;;20.40;66.90;;;;;;4949811;28;87751;-64
2021/10/31 03:54:18;;;;;;;4.75;0.90;;;20.40;66.90;;;;;;4949474;28;87624;-64
2021/10/31 03:56:44;;;;;;;3.25;0.60;;;20.40;66.90;;;;;;4949044;28;87596;-65
2021/10/31 03:59:10;;;;;;;2.17;0.98;;;20.40;66.90;;;;;;4929991;28;90083;-64
2021/10/31 04:01:35;;;;;;;2.60;0.88;;;20.40;66.90;;;;;;4925656;28;87535;-64
2021/10/31 04:04:02;;;;;;;2.35;0.80;;;20.40;66.90;;;;;;4931045;28;90054;-64
2021/10/31 04:06:28;;;;;;;1.83;0.73;;;20.40;67.00;;;;;;4946963;28;91615;-65
2021/10/31 04:08:56;;;;;;;1.83;0.82;;;20.40;66.90;;;;;;4931131;28;91181;-64
2021/10/31 04:11:22;;;;;;;3.17;0.80;;;20.40;66.90;;;;;;4948943;28;87177;-65
2021/10/31 04:13:48;;;;;;;4.20;1.00;;;20.40;66.90;;;;;;4930390;28;87907;-65
2021/10/31 04:16:14;;;;;;;3.42;1.10;;;20.40;66.90;;;;;;4949206;28;88047;-65
2021/10/31 04:18:39;;;;;;;1.27;0.70;;;20.40;66.90;;;;;;4947179;28;91213;-66
2021/10/31 04:21:06;;;;;;;2.42;0.82;;;20.40;66.90;;;;;;4949537;28;87399;-65
2021/10/31 04:23:31;;;;;;;2.08;1.00;;;20.40;66.90;;;;;;4930327;28;89149;-66
2021/10/31 04:25:57;;;;;;;2.92;1.15;;;20.30;66.90;;;;;;4948867;28;88202;-66
2021/10/31 04:28:25;;;;;;;1.35;0.57;;;20.40;67.00;;;;;;4948808;28;88278;-64
2021/10/31 04:30:54;;;;;;;5.20;1.23;;;20.40;67.50;;;;;;4949504;28;87627;-64
2021/10/31 04:33:19;;;;;;;1.33;0.90;;;20.30;66.90;;;;;;4930901;28;88133;-66
2021/10/31 04:35:45;;;;;;;1.77;0.80;;;20.40;67.00;;;;;;4949100;28;87851;-66
2021/10/31 04:38:23;;;;;;;2.58;0.82;;;20.30;66.90;;;;;;4948550;28;88051;-64
2021/10/31 04:40:49;;;;;;;4.18;1.00;;;20.30;66.90;;;;;;4949551;28;88074;-65
2021/10/31 04:43:16;;;;;;;1.73;0.90;;;20.30;66.90;;;;;;4931459;28;89025;-65
2021/10/31 04:45:44;;;;;;;1.67;0.80;;;20.30;66.90;;;;;;4930841;28;90245;-63
2021/10/31 04:48:12;;;;;;;2.35;0.82;;;20.30;66.90;;;;;;4930501;28;90021;-65
2021/10/31 04:50:38;;;;;;;4.30;0.90;;;20.30;66.90;;;;;;4948557;28;87685;-64
2021/10/31 04:53:07;;;;;;;1.90;0.70;;;20.30;66.90;;;;;;4947086;28;90644;-67
2021/10/31 04:55:42;;;;;;;2.58;0.88;;;20.30;66.90;;;;;;4931348;28;89526;-66
2021/10/31 04:58:11;;;;;;;5.47;1.50;;;20.30;67.00;;;;;;4930621;28;91126;-64
2021/10/31 05:00:37;;;;;;;2.53;0.70;;;20.30;67.00;;;;;;4949047;28;87848;-65
2021/10/31 05:03:03;;;;;;;2.67;0.70;;;20.30;67.00;;;;;;4930790;28;88388;-64
2021/10/31 05:05:30;;;;;;;2.05;0.60;;;20.30;66.90;;;;;;4947190;28;90074;-64
2021/10/31 05:07:56;;;;;;;2.75;1.05;;;20.30;67.00;;;;;;4929763;28;89371;-64
2021/10/31 05:10:23;;;;;;;2.42;0.93;;;20.30;67.00;;;;;;4947706;28;87792;-67
2021/10/31 05:12:49;;;;;;;1.98;0.90;;;20.30;67.00;;;;;;4950873;28;87973;-65
2021/10/31 05:15:14;;;;;;;2.38;0.88;;;20.30;67.00;;;;;;4950738;28;89391;-64
2021/10/31 05:17:41;;;;;;;2.65;1.00;;;20.30;67.00;;;;;;4951007;28;88991;-67
2021/10/31 05:20:09;;;;;;;3.65;1.48;;;20.30;67.00;;;;;;4952099;28;87632;-64
2021/10/31 05:22:35;;;;;;;4.38;0.80;;;20.30;67.00;;;;;;4949805;28;90381;-67
2021/10/31 05:25:02;;;;;;;2.50;0.77;;;20.30;66.90;;;;;;4933009;28;89847;-65
2021/10/31 05:27:27;;;;;;;3.45;1.10;;;20.30;66.90;;;;;;4951571;28;87781;-65
2021/10/31 05:29:53;;;;;;;2.25;0.77;;;20.30;66.90;;;;;;4951013;28;87949;-64
2021/10/31 05:32:19;;;;;;;4.07;0.80;;;20.30;66.90;;;;;;4951558;28;87752;-65
2021/10/31 05:34:44;;;;;;;1.67;0.65;;;20.30;66.90;;;;;;4951900;28;86766;-64
2021/10/31 05:37:11;;;;;;;1.52;0.73;;;20.30;66.90;;;;;;4951469;28;87848;-66
2021/10/31 05:39:37;;;;;;;2.78;0.73;;;20.20;67.30;;;;;;4952206;28;87385;-64
2021/10/31 05:42:03;;;;;;;1.67;0.70;;;20.30;66.90;;;;;;4950584;28;88951;-65
2021/10/31 05:44:28;;;;;;;3.35;0.60;;;20.30;66.80;;;;;;4950967;28;89443;-67
2021/10/31 05:46:54;;;;;;;1.90;0.65;;;20.20;66.80;;;;;;4950257;28;88376;-64
2021/10/31 05:49:20;;;;;;;2.70;0.63;;;20.30;66.80;;;;;;4933537;28;88239;-65
2021/10/31 05:51:45;;;;;;;2.20;0.82;;;20.20;66.70;;;;;;4951891;28;88384;-65
2021/10/31 05:54:11;;;;;;;2.10;0.68;;;20.30;66.80;;;;;;4949330;28;90936;-65
2021/10/31 05:56:37;;;;;;;2.90;0.77;;;20.20;66.70;;;;;;4950950;28;88093;-64
2021/10/31 05:59:03;;;;;;;2.88;0.70;;;20.20;66.70;;;;;;4951354;28;87233;-65
2021/10/31 06:01:28;;;;;;;2.15;0.80;;;20.20;66.70;;;;;;4933115;28;89674;-65
2021/10/31 06:03:55;;;;;;;2.88;0.70;;;20.20;66.70;;;;;;4949515;28;89307;-65
2021/10/31 06:06:26;;;;;;;2.72;0.60;;;20.20;66.70;;;;;;4919241;28;90730;-64
2021/10/31 06:08:51;;;;;;;2.17;0.80;;;20.30;66.80;;;;;;4950297;28;87304;-66
2021/10/31 06:11:17;;;;;;;2.78;0.70;;;20.20;66.70;;;;;;4950312;28;88131;-65
2021/10/31 06:13:44;;;;;;;1.00;0.65;;;20.20;66.60;;;;;;4931363;28;91559;-65
2021/10/31 06:16:09;;;;;;;2.92;0.90;;;20.20;66.70;;;;;;4941912;28;88990;-65
2021/10/31 06:18:36;;;;;;;2.10;1.00;;;20.20;66.70;;;;;;4932189;28;87514;-65
2021/10/31 06:21:02;;;;;;;1.30;0.70;;;20.20;66.70;;;;;;4949610;28;90218;-65
2021/10/31 06:23:28;;;;;;;2.60;0.70;;;20.20;66.70;;;;;;4948949;28;88497;-64
2021/10/31 06:25:54;;;;;;;1.55;0.50;;;20.20;66.70;;;;;;4949364;28;88180;-65
2021/10/31 06:28:20;;;;;;;2.92;0.90;;;20.20;66.70;;;;;;4949172;28;88084;-65
2021/10/31 06:30:45;;;;;;;1.13;0.60;;;20.20;66.70;;;;;;4950367;28;88516;-65
2021/10/31 06:33:12;;;;;;;1.70;0.70;;;20.20;66.70;;;;;;4948848;28;91100;-65
2021/10/31 06:35:38;;;;;;;3.17;0.70;;;20.20;66.70;;;;;;4932149;28;88899;-67
2021/10/31 06:38:03;;;;;;;2.83;0.85;;;20.20;66.70;;;;;;4932460;28;87686;-64
2021/10/31 06:40:30;;;;;;;2.05;0.60;;;20.20;66.70;;;;;;4929191;28;88384;-66
2021/10/31 06:42:55;;;;;;;2.78;0.90;;;20.20;66.60;;;;;;4950243;28;87638;-65
2021/10/31 06:45:21;;;;;;;2.53;0.80;;;20.20;66.60;;;;;;4948908;28;89749;-65
2021/10/31 06:47:46;;;;;;;0.88;0.65;;;20.20;66.60;;;;;;4949573;28;87427;-65
2021/10/31 06:50:12;;;;;;;4.82;0.70;;;20.20;66.60;;;;;;4949834;28;87483;-66
2021/10/31 06:52:38;;;;;;;1.92;0.60;;;20.20;66.60;;;;;;4950778;28;87984;-66
2021/10/31 06:55:06;;;;;;;3.40;1.10;;;20.20;66.60;;;;;;4948116;28;89580;-65
2021/10/31 06:57:32;;;;;;;2.47;0.65;;;20.20;66.60;;;;;;4950172;28;87245;-65
2021/10/31 06:59:58;;;;;;;4.15;0.85;;;20.20;66.60;;;;;;4950484;28;87879;-65
2021/10/31 07:02:23;;;;;;;1.45;0.45;;;20.20;66.60;;;;;;4947871;28;91266;-65
2021/10/31 07:04:49;;;;;;;2.45;0.60;;;20.20;66.60;;;;;;4949492;28;87561;-64
2021/10/31 07:07:15;;;;;;;2.90;0.60;;;20.20;66.80;;;;;;4948500;28;87725;-64
2021/10/31 07:09:42;;;;;;;4.20;0.80;;;20.20;67.60;;;;;;4931842;28;89575;-64
2021/10/31 07:12:10;;;;;;;5.53;0.73;;;20.20;67.00;;;;;;4950205;28;87488;-65
2021/10/31 07:14:36;;;;;;;5.90;0.60;;;20.20;66.90;;;;;;4949805;28;87536;-64
2021/10/31 07:17:02;;;;;;;2.60;0.70;;;20.20;67.00;;;;;;4950214;28;87159;-65
2021/10/31 07:19:30;;;;;;;2.95;0.75;;;20.20;66.90;;;;;;4948231;28;88435;-64
2021/10/31 07:21:55;;;;;;;3.90;0.68;;;20.30;66.90;;;;;;4948147;28;88588;-65
2021/10/31 07:24:21;;;;;;;5.63;0.90;;;20.40;66.80;;;;;;4950587;28;87838;-63
2021/10/31 07:26:47;;;;;;;5.82;1.02;;;20.40;66.60;;;;;;4950065;28;87530;-64
2021/10/31 07:29:13;;;;;;;3.58;0.80;;;20.50;66.30;;;;;;4932009;28;90504;-66
2021/10/31 07:31:41;;;;;;;6.78;1.67;;;20.50;66.10;;;;;;4923698;28;91764;-65
2021/10/31 07:34:08;;;;;;;5.95;1.40;;;20.60;65.90;;;;;;4947853;28;87786;-64
2021/10/31 07:36:35;;;;;;;9.15;1.63;;;20.70;65.60;;;;;;4950775;28;87461;-68
2021/10/31 07:39:00;;;;;;;12.20;2.13;;;20.70;65.40;;;;;;4932385;28;88105;-65
2021/10/31 07:41:26;;;;;;;10.80;2.20;;;20.80;65.20;;;;;;4944691;28;89087;-66
2021/10/31 07:43:53;;;;;;;10.93;2.55;;;20.80;65.00;;;;;;4947906;28;88333;-72
2021/10/31 07:46:23;;;;;;;6.05;1.90;;;20.90;64.90;;;;;;4949358;28;87536;-71
2021/10/31 07:48:48;;;;;;;5.80;1.92;;;20.90;64.60;;;;;;4948527;28;87746;-68
2021/10/31 07:51:14;;;;;;;9.80;2.20;;;20.90;64.30;;;;;;4948022;28;88226;-67
2021/10/31 07:53:42;;;;;;;8.40;2.10;;;20.90;64.10;;;;;;4948704;28;87610;-68
2021/10/31 07:56:11;;;;;;;5.05;1.70;;;20.90;63.80;;;;;;4859028;28;87905;-69
2021/10/31 07:58:37;;;;;;;6.95;2.20;;;20.90;63.60;;;;;;4943226;28;87029;-68
2021/10/31 08:01:04;;;;;;;9.48;2.40;;;20.90;63.40;;;;;;4946773;28;91655;-67
2021/10/31 08:03:30;;;;;;;7.93;1.92;;;20.90;63.20;;;;;;4941390;28;87721;-64
2021/10/31 08:05:55;;;;;;;6.32;1.80;;;20.90;63.00;;;;;;4945925;28;87744;-64
2021/10/31 08:08:22;;;;;;;4.68;1.75;;;20.90;63.10;;;;;;4930481;28;89610;-64
2021/10/31 08:10:49;;;;;;;8.73;2.20;;;21.00;63.10;;;;;;4947729;28;87868;-64
2021/10/31 08:13:24;;;;;;;5.63;1.52;;;21.00;63.00;;;;;;4946214;28;88435;-63
2021/10/31 08:15:52;;;;;;;4.70;2.20;;;21.00;62.80;;;;;;4949186;28;87991;-65
2021/10/31 08:18:19;;;;;;;3.05;1.48;;;21.00;62.80;;;;;;4944569;28;87758;-64
2021/10/31 08:20:45;;;;;;;7.32;1.58;;;21.00;62.60;;;;;;4944673;28;87591;-63
2021/10/31 08:23:15;;;;;;;3.70;1.60;;;21.10;62.40;;;;;;4946748;28;88167;-63
2021/10/31 08:25:43;;;;;;;5.47;1.33;;;21.10;62.40;;;;;;4947920;28;86942;-68
2021/10/31 08:28:10;;;;;;;4.05;1.20;;;21.10;62.20;;;;;;4948781;28;88095;-68
2021/10/31 08:30:36;;;;;;;5.25;1.60;;;21.10;62.10;;;;;;4948547;28;87859;-69
2021/10/31 08:33:08;;;;;;;4.32;1.38;;;21.10;61.90;;;;;;4949083;28;89462;-68
2021/10/31 08:35:34;;;;;;;4.20;1.42;;;21.10;61.70;;;;;;4949330;28;87218;-68
2021/10/31 08:38:02;;;;;;;7.38;1.60;;;21.10;61.60;;;;;;4949190;28;88237;-67
2021/10/31 08:40:27;;;;;;;6.43;1.58;;;21.10;61.40;;;;;;4947873;28;88419;-66
2021/10/31 08:42:53;;;;;;;3.17;1.50;;;21.10;61.20;;;;;;4946273;28;90361;-67
2021/10/31 08:45:19;;;;;;;4.35;1.33;;;21.10;61.10;;;;;;4949029;28;87526;-67
2021/10/31 08:47:45;;;;;;;5.65;1.30;;;21.10;61.00;;;;;;4951219;28;87712;-67
2021/10/31 08:50:10;;;;;;;6.20;2.08;;;21.10;60.90;;;;;;4950514;28;88610;-64
2021/10/31 08:52:39;;;;;;;5.30;1.45;;;21.00;60.70;;;;;;4951160;28;88095;-67
2021/10/31 08:55:06;;;;;;;3.63;1.65;;;21.00;60.60;;;;;;4952113;28;87772;-67
2021/10/31 08:57:31;;;;;;;4.45;1.20;;;21.00;60.60;;;;;;4949508;28;89203;-64
2021/10/31 08:59:58;;;;;;;3.40;1.33;;;21.00;60.50;;;;;;4950390;28;87883;-67
2021/10/31 09:02:25;;;;;;;2.42;1.30;;;21.00;60.40;;;;;;4950109;28;87940;-64
2021/10/31 09:04:51;;;;;;;5.55;1.50;;;21.00;60.30;;;;;;4950559;28;87471;-67
2021/10/31 09:07:17;;;;;;;3.60;0.98;;;21.00;60.30;;;;;;4946807;28;88757;-70
2021/10/31 09:09:43;;;;;;;2.13;1.00;;;21.00;61.40;;;;;;4949700;28;88203;-74
2021/10/31 09:12:10;;;;;;;5.60;0.98;;;21.00;61.10;;;;;;4927994;28;90704;-65
2021/10/31 09:14:36;;;;;;;5.85;1.20;;;21.00;60.70;;;;;;4947195;28;87348;-73
2021/10/31 09:17:02;;;;;;;3.83;0.93;;;21.00;60.60;;;;;;4949726;28;88182;-70
2021/10/31 09:19:28;;;;;;;5.28;1.90;;;21.00;60.30;;;;;;4948076;28;89960;-68
2021/10/31 09:21:54;;;;;;;4.15;1.08;;;21.00;60.30;;;;;;4946409;28;89415;-66
2021/10/31 09:24:20;;;;;;;3.40;0.85;;;21.10;60.10;;;;;;4950031;28;88237;-60
2021/10/31 09:26:46;;;;;;;1.73;0.98;;;21.20;59.90;;;;;;4950002;28;87138;-67
2021/10/31 09:29:11;;;;;;;7.53;1.30;;;21.20;59.70;;;;;;4948717;28;89216;-65
2021/10/31 09:31:38;;;;;;;3.45;1.00;;;21.20;59.70;;;;;;4949528;28;88487;-71
2021/10/31 09:34:04;;;;;;;1.80;0.80;;;21.30;59.60;;;;;;4931453;28;87643;-68
2021/10/31 09:36:34;;;;;;;3.17;0.80;;;21.40;59.00;;;;;;4950460;28;87650;-64
2021/10/31 09:39:02;;;;;;;2.25;0.80;;;21.60;58.50;;;;;;4950908;28;87561;-65
2021/10/31 09:41:30;;;;;;;2.15;0.75;;;21.60;58.10;;;;;;4949437;28;87254;-67
2021/10/31 09:44:09;;;;;;;2.08;0.98;;;21.70;57.80;;;;;;4931813;28;88113;-66
2021/10/31 09:46:34;;;;;;;3.03;0.80;;;21.80;57.60;;;;;;4950460;28;88671;-67
2021/10/31 09:49:03;;;;;;;2.75;0.82;;;21.80;57.40;;;;;;4950591;28;87475;-65
2021/10/31 09:51:28;;;;;;;2.33;0.57;;;21.90;57.50;;;;;;4948781;28;91584;-64
2021/10/31 09:53:57;;;;;;;2.70;0.70;;;21.80;57.30;;;;;;4949658;28;87516;-63
2021/10/31 09:56:22;;;;;;;7.00;0.75;;;21.80;57.20;;;;;;4932285;28;88006;-63
2021/10/31 09:58:50;;;;;;;2.53;0.85;;;21.80;57.10;;;;;;4948093;28;91182;-65
2021/10/31 10:01:50;;;;;;;2.25;0.50;;;21.80;57.10;;;;;;4950314;28;87632;-64
2021/10/31 10:04:23;;;;;;;1.58;0.57;;;21.70;57.00;;;;;;4950034;28;87241;-63
2021/10/31 10:06:50;;;;;;;1.40;0.50;;;21.70;56.80;;;;;;4948728;28;88333;-63
2021/10/31 10:09:16;;;;;;;3.28;0.77;;;21.70;56.70;;;;;;4949150;28;89405;-65
2021/10/31 10:11:46;;;;;;;3.50;0.70;;;21.70;56.60;;;;;;4945960;28;88902;-60
2021/10/31 10:14:23;;;;;;;1.75;0.50;;;21.70;57.00;;;;;;4951909;28;87851;-65
2021/10/31 10:16:53;;;;;;;1.58;0.50;;;21.60;57.70;;;;;;4932279;28;90010;-64
2021/10/31 10:19:25;;;;;;;3.65;0.70;;;21.50;58.20;;;;;;4932166;28;89376;-70
2021/10/31 10:21:57;;;;;;;1.13;0.50;;;21.50;58.50;;;;;;4947392;28;89144;-63
2021/10/31 10:24:24;;;;;;;1.67;0.63;;;21.50;58.70;;;;;;4931305;28;87874;-62
2021/10/31 10:26:56;;;;;;;1.83;0.40;;;21.50;58.70;;;;;;4950508;28;87778;-61
2021/10/31 10:29:27;;;;;;;3.90;0.60;;;21.60;58.80;;;;;;4951025;28;88073;-63
2021/10/31 10:31:56;;;;;;;4.03;0.40;;;21.60;58.90;;;;;;4949646;28;87502;-64
2021/10/31 10:34:42;;;;;;;2.95;0.73;;;21.60;59.10;;;;;;4931341;28;88743;-70
2021/10/31 10:37:20;;;;;;;1.42;0.60;;;21.60;59.20;;;;;;4949798;28;88935;-70
2021/10/31 10:39:55;;;;;;;1.85;0.50;;;21.80;57.90;;;;;;4949840;28;88131;-65
2021/10/31 10:42:39;;;;;;;2.85;0.43;;;21.90;57.40;;;;;;4949261;28;91315;-69
2021/10/31 10:45:08;;;;;;;1.83;0.40;;;22.00;57.00;;;;;;4950535;28;88072;-68
2021/10/31 10:47:53;;;;;;;0.82;0.52;;;22.00;56.80;;;;;;4948480;28;89914;-69
2021/10/31 10:50:29;;;;;;;1.15;0.47;;;22.10;56.80;;;;;;4950050;28;88208;-71
2021/10/31 10:52:56;;;;;;;3.50;0.55;;;22.10;56.70;;;;;;4940900;28;89429;-71
2021/10/31 10:55:27;;;;;;;1.15;0.45;;;22.10;56.70;;;;;;4950629;28;87592;-63
2021/10/31 10:58:13;;;;;;;0.85;0.30;;;22.10;56.70;;;;;;4948170;28;88688;-68
2021/10/31 11:00:50;;;;;;;2.72;0.40;;;22.10;56.70;;;;;;4948988;28;88132;-65
2021/10/31 11:03:20;;;;;;;1.85;0.50;;;22.00;56.70;;;;;;4949823;28;89106;-69
2021/10/31 11:05:48;;;;;;;0.45;0.30;;;22.00;56.70;;;;;;4950550;28;87655;-71
2021/10/31 11:08:24;;;;;;;1.95;0.40;;;22.00;56.90;;;;;;4949641;28;87773;-70
2021/10/31 11:10:57;;;;;;;0.90;0.40;;;21.90;57.00;;;;;;4949642;28;87842;-64
2021/10/31 11:13:27;;;;;;;1.40;0.40;;;21.90;57.10;;;;;;4948837;28;89774;-71
2021/10/31 11:15:55;;;;;;;3.53;0.40;;;21.90;57.10;;;;;;4949807;28;87564;-65
2021/10/31 11:18:21;;;;;;;0.80;0.40;;;21.90;57.50;;;;;;4946851;28;87169;-67
2021/10/31 11:20:47;;;;;;;3.03;0.85;;;21.80;57.80;;;;;;4949072;28;87541;-61
2021/10/31 11:23:17;;;;;;;1.38;0.63;;;21.80;58.00;;;;;;4949403;28;87659;-67
2021/10/31 11:25:45;;;;;;;2.17;0.55;;;21.80;58.00;;;;;;4931892;28;88331;-64
2021/10/31 11:28:15;;;;;;;2.25;0.45;;;21.80;58.30;;;;;;4931514;28;90318;-63
2021/10/31 11:30:42;;;;;;;1.48;0.60;;;21.70;58.20;;;;;;4931701;28;91258;-67
2021/10/31 11:33:10;;;;;;;1.27;0.50;;;21.70;58.10;;;;;;4949251;28;87739;-66
2021/10/31 11:35:40;;;;;;;1.73;0.40;;;21.80;58.10;;;;;;4949345;28;87579;-65
2021/10/31 11:38:08;;;;;;;2.28;0.45;;;21.80;58.10;;;;;;4948675;28;88189;-59
2021/10/31 11:40:40;;;;;;;10.55;1.70;;;21.80;58.20;;;;;;4948829;28;88165;-60
2021/10/31 11:43:18;;;;;;;34.08;4.53;;;21.70;58.30;;;;;;4946906;28;90070;-60
2021/10/31 11:45:46;;;;;;;34.47;6.03;;;21.70;58.60;;;;;;4948077;28;87414;-60
2021/10/31 11:48:21;;;;;;;35.95;5.50;;;21.70;58.80;;;;;;4950149;28;87848;-62
2021/10/31 11:50:59;;;;;;;32.22;5.13;;;21.70;58.90;;;;;;4924451;28;88480;-60
2021/10/31 11:53:30;;;;;;;26.67;4.60;;;21.70;58.90;;;;;;4947261;28;89390;-60
2021/10/31 11:55:59;;;;;;;23.25;4.97;;;21.70;59.00;;;;;;4949527;28;87767;-61
2021/10/31 11:58:36;;;;;;;25.30;4.00;;;21.70;59.00;;;;;;4948838;28;88014;-61
2021/10/31 12:01:12;;;;;;;17.23;3.65;;;21.70;59.00;;;;;;4949614;28;88312;-61
2021/10/31 12:03:51;;;;;;;23.45;3.35;;;21.70;59.00;;;;;;4930813;28;90706;-62
2021/10/31 12:06:16;;;;;;;18.85;3.72;;;21.70;59.00;;;;;;4949408;28;88416;-60
2021/10/31 12:09:14;;;;;;;21.50;3.17;;;21.60;59.20;;;;;;4930031;28;88294;-61
2021/10/31 12:11:42;;;;;;;17.08;2.50;;;21.60;59.40;;;;;;4939588;28;87071;-62
2021/10/31 12:14:10;;;;;;;13.00;2.33;;;21.50;59.60;;;;;;4949489;28;88562;-61
2021/10/31 12:16:56;;;;;;;11.93;3.28;;;21.50;60.20;;;;;;4949452;28;88005;-59
2021/10/31 12:19:24;;;;;;;10.75;2.42;;;21.50;59.90;;;;;;4949140;28;88760;-59
2021/10/31 12:22:10;;;;;;;10.60;2.20;;;21.50;60.00;;;;;;4933681;28;89798;-60
2021/10/31 12:24:49;;;;;;;10.43;1.77;;;21.40;60.20;;;;;;4952754;28;88120;-61
2021/10/31 12:27:16;;;;;;;8.35;1.60;;;21.30;60.40;;;;;;4953364;28;88163;-62
2021/10/31 12:29:47;;;;;;;9.13;1.52;;;21.30;60.60;;;;;;4952359;28;88241;-59
2021/10/31 12:32:18;;;;;;;8.30;1.70;;;21.20;60.70;;;;;;4952415;28;88021;-59
2021/10/31 12:34:46;;;;;;;8.80;1.70;;;21.30;60.90;;;;;;4950949;28;91385;-61
2021/10/31 12:37:23;;;;;;;11.65;2.22;;;21.20;60.90;;;;;;4953276;28;86840;-58
2021/10/31 12:39:59;;;;;;;7.32;1.73;;;21.20;61.00;;;;;;4952943;28;87205;-59
2021/10/31 12:42:29;;;;;;;7.60;1.50;;;21.20;61.10;;;;;;4953290;28;88206;-61
2021/10/31 12:44:59;;;;;;;6.18;1.50;;;21.20;61.10;;;;;;4952430;28;88757;-62
2021/10/31 12:48:07;;;;;;;5.22;1.30;;;21.20;61.20;;;;;;4952398;28;87492;-61
2021/10/31 12:50:33;;;;;;;10.55;1.42;;;21.20;61.20;;;;;;4929576;28;87605;-60
2021/10/31 12:53:02;;;;;;;8.23;1.38;;;21.20;61.30;;;;;;4951243;28;88307;-59
2021/10/31 12:55:30;;;;;;;4.18;1.30;;;21.20;61.30;;;;;;4951232;28;87917;-61